Johnstown, PA (15901)

03:27 AM EST del 23 novembre 2014 (GMT -0500)
Brownstown | Change Station
CLOSE
Current Station
Stazione meteo personale
Location: Johnstown, PA
Altitudine: 1516 ft
Stazioni meteo nelle vicinanze

Alt. 1516 ft 40.34 °N, 78.94 °W | Updated 0 second ago

Coperto
Coperto
33.8 °F
Sembra 34 °F
N
0.0
Vento Variabile Vento da NNO
Gusts 0.0 mph

Oggi
Massima -- | Minima -- °F
--% Possibilità di precip.
Ieri
Massima -- | Minima -- °F
Precip. -- in
7:10 AM 4:53 PM
Luna nuova, 1% visible
Pressione 30.14 in
Visibilità 10.0 miglia
Nuvole Molto nuvoloso 9000 ft
Raffreddamento del vento 34 °F
Punto di rugiada 32 °F
Umidità 92%
Piovosità 0.00 in
Spessore del manto nevoso Non disponibile.
Raggi UV 0 fuori da 12
Polline .10 fuori da 12
Qualità dell'aria Non disponibile.
Flu Activity Non disponibile.
METAR KJST 230754Z AUTO 22008KT 10SM BKN090 08/M05 A3010 RMK AO2 SLP204 T00781050

More Conditions Fewer Conditions

Pressione 30.14 in
Visibilità 10.0 miglia
Nuvole Molto nuvoloso 9000 ft
Raffreddamento del vento 34 °F
Punto di rugiada 32 °F
Umidità 92%
Piovosità 0.00 in
Spessore del manto nevoso Non disponibile.
Raggi UV 0 fuori da 12
Polline .10 fuori da 12
Qualità dell'aria Non disponibile.
Flu Activity Non disponibile.
METAR KJST 230754Z AUTO 22008KT 10SM BKN090 08/M05 A3010 RMK AO2 SLP204 T00781050

More Conditions Fewer Conditions

10-Day Weather Forecast

Almanac

Astronomia

Nov. 23, 2014 Alba Tramonto
Ora attuale
Crepuscolo civile
Crepuscolo nautico
Crepuscolo astronomico
Luna
Estensione della luce visibile
Lunghezza del giorno
Tomorrow will be .
, % of the Moon is Illuminated

Gli estremi di oggi

State Highs State Lows

Community

WunderPhotos

Upload Photos

1,773,024 foto caricate!

WunderBlogs® & News

Nearby

Qualità dell'aria

  Qualità dell'aria Indice AQ Inquinante
Not available.

Profondità neve

Stazione Profondità Altitudine

Attività sismica

Città  Distanza Mag. Data & Ora
Minimo Magnitudo Mostrato è 2.5.

Temperature delle acque costiere

Località Temperatura

Stazioni meteo nelle vicinanze